sensor_id;sensor_type;location;lat;lon;timestamp;pressure;altitude;pressure_sealevel;temperature;humidity
56894;BME280;43392;50.078;13.704;2023-05-22T00:02:01;96968.75;;;16.28;71.91
56894;BME280;43392;50.078;13.704;2023-05-22T00:04:29;96966.97;;;16.23;71.86
56894;BME280;43392;50.078;13.704;2023-05-22T00:06:56;96958.97;;;16.10;71.72
56894;BME280;43392;50.078;13.704;2023-05-22T00:09:24;96955.53;;;15.96;72.26
56894;BME280;43392;50.078;13.704;2023-05-22T00:11:51;96964.88;;;15.89;72.11
56894;BME280;43392;50.078;13.704;2023-05-22T00:14:18;96958.81;;;15.84;72.41
56894;BME280;43392;50.078;13.704;2023-05-22T00:16:45;96960.25;;;15.81;72.45
56894;BME280;43392;50.078;13.704;2023-05-22T00:19:12;96960.03;;;15.78;72.49
56894;BME280;43392;50.078;13.704;2023-05-22T00:21:41;96959.06;;;15.74;72.88
56894;BME280;43392;50.078;13.704;2023-05-22T00:24:08;96960.59;;;15.66;73.14
56894;BME280;43392;50.078;13.704;2023-05-22T00:26:36;96961.69;;;15.65;73.03
56894;BME280;43392;50.078;13.704;2023-05-22T00:29:02;96956.91;;;15.62;73.16
56894;BME280;43392;50.078;13.704;2023-05-22T00:31:30;96958.50;;;15.63;73.49
56894;BME280;43392;50.078;13.704;2023-05-22T00:33:57;96955.81;;;15.63;73.32
56894;BME280;43392;50.078;13.704;2023-05-22T00:36:23;96957.41;;;15.64;73.81
56894;BME280;43392;50.078;13.704;2023-05-22T00:38:50;96957.69;;;15.63;73.72
56894;BME280;43392;50.078;13.704;2023-05-22T00:41:16;96959.59;;;15.62;73.90
56894;BME280;43392;50.078;13.704;2023-05-22T00:43:44;96967.72;;;15.62;73.56
56894;BME280;43392;50.078;13.704;2023-05-22T00:46:11;96964.22;;;15.62;73.90
56894;BME280;43392;50.078;13.704;2023-05-22T00:48:38;96955.94;;;15.58;73.92
56894;BME280;43392;50.078;13.704;2023-05-22T00:51:05;96954.94;;;15.54;73.53
56894;BME280;43392;50.078;13.704;2023-05-22T00:53:32;96962.38;;;15.49;73.73
56894;BME280;43392;50.078;13.704;2023-05-22T00:55:59;96957.56;;;15.46;74.14
56894;BME280;43392;50.078;13.704;2023-05-22T00:58:26;96962.47;;;15.44;74.41
56894;BME280;43392;50.078;13.704;2023-05-22T01:00:55;96966.28;;;15.43;74.49
56894;BME280;43392;50.078;13.704;2023-05-22T01:03:22;96953.06;;;15.41;74.78
56894;BME280;43392;50.078;13.704;2023-05-22T01:05:53;96948.78;;;15.40;74.68
56894;BME280;43392;50.078;13.704;2023-05-22T01:08:20;96957.97;;;15.39;74.65
56894;BME280;43392;50.078;13.704;2023-05-22T01:10:47;96952.09;;;15.37;74.62
56894;BME280;43392;50.078;13.704;2023-05-22T01:13:27;96957.00;;;15.35;74.65
56894;BME280;43392;50.078;13.704;2023-05-22T01:16:01;96963.50;;;15.34;75.07
56894;BME280;43392;50.078;13.704;2023-05-22T01:18:48;96959.22;;;15.33;75.32
56894;BME280;43392;50.078;13.704;2023-05-22T01:21:21;96966.50;;;15.33;75.13
56894;BME280;43392;50.078;13.704;2023-05-22T01:24:07;96973.59;;;15.28;75.03
56894;BME280;43392;50.078;13.704;2023-05-22T01:30:02;96978.56;;;15.13;75.71
56894;BME280;43392;50.078;13.704;2023-05-22T01:32:39;96965.16;;;15.08;75.84
56894;BME280;43392;50.078;13.704;2023-05-22T01:35:09;96971.19;;;15.05;75.45
56894;BME280;43392;50.078;13.704;2023-05-22T01:37:37;96973.69;;;15.01;75.81
56894;BME280;43392;50.078;13.704;2023-05-22T01:40:05;96969.50;;;14.95;75.59
56894;BME280;43392;50.078;13.704;2023-05-22T01:42:32;96966.09;;;14.90;76.06
56894;BME280;43392;50.078;13.704;2023-05-22T01:45:00;96964.50;;;14.89;76.50
56894;BME280;43392;50.078;13.704;2023-05-22T01:47:26;96963.38;;;14.90;77.05
56894;BME280;43392;50.078;13.704;2023-05-22T01:49:54;96965.50;;;14.93;76.69
56894;BME280;43392;50.078;13.704;2023-05-22T01:52:25;96965.00;;;14.91;76.38
56894;BME280;43392;50.078;13.704;2023-05-22T01:54:58;96963.53;;;14.85;76.99
56894;BME280;43392;50.078;13.704;2023-05-22T01:57:31;96970.31;;;14.82;77.31
56894;BME280;43392;50.078;13.704;2023-05-22T02:00:03;96977.13;;;14.80;77.61
56894;BME280;43392;50.078;13.704;2023-05-22T02:02:35;96965.03;;;14.77;77.37
56894;BME280;43392;50.078;13.704;2023-05-22T02:05:04;96968.59;;;14.73;77.61
56894;BME280;43392;50.078;13.704;2023-05-22T02:07:31;96963.63;;;14.66;77.16
56894;BME280;43392;50.078;13.704;2023-05-22T02:09:59;96966.53;;;14.56;77.39
56894;BME280;43392;50.078;13.704;2023-05-22T02:12:27;96959.63;;;14.50;78.18
56894;BME280;43392;50.078;13.704;2023-05-22T02:14:54;96950.56;;;14.46;78.63
56894;BME280;43392;50.078;13.704;2023-05-22T02:17:21;96959.44;;;14.46;78.38
56894;BME280;43392;50.078;13.704;2023-05-22T02:19:48;96960.06;;;14.43;78.04
56894;BME280;43392;50.078;13.704;2023-05-22T02:22:16;96956.06;;;14.41;77.86
56894;BME280;43392;50.078;13.704;2023-05-22T02:24:45;96950.13;;;14.39;78.05
56894;BME280;43392;50.078;13.704;2023-05-22T02:27:12;96959.03;;;14.39;78.00
56894;BME280;43392;50.078;13.704;2023-05-22T02:29:39;96953.13;;;14.37;78.39
56894;BME280;43392;50.078;13.704;2023-05-22T02:32:06;96945.53;;;14.39;79.47
56894;BME280;43392;50.078;13.704;2023-05-22T02:34:33;96945.75;;;14.43;79.11
56894;BME280;43392;50.078;13.704;2023-05-22T02:37:02;96944.13;;;14.42;78.15
56894;BME280;43392;50.078;13.704;2023-05-22T02:39:30;96931.06;;;14.35;78.32
56894;BME280;43392;50.078;13.704;2023-05-22T02:41:56;96926.31;;;14.27;78.53
56894;BME280;43392;50.078;13.704;2023-05-22T02:44:23;96941.22;;;14.25;79.06
56894;BME280;43392;50.078;13.704;2023-05-22T02:46:49;96932.13;;;14.21;79.18
56894;BME280;43392;50.078;13.704;2023-05-22T02:49:16;96931.31;;;14.20;79.58
56894;BME280;43392;50.078;13.704;2023-05-22T02:51:43;96939.41;;;14.20;79.35
56894;BME280;43392;50.078;13.704;2023-05-22T02:54:12;96931.91;;;14.17;79.27
56894;BME280;43392;50.078;13.704;2023-05-22T02:56:41;96928.53;;;14.12;79.02
56894;BME280;43392;50.078;13.704;2023-05-22T02:59:07;96925.63;;;14.08;79.00
56894;BME280;43392;50.078;13.704;2023-05-22T03:01:34;96928.63;;;14.07;78.83
56894;BME280;43392;50.078;13.704;2023-05-22T03:04:00;96923.00;;;14.03;79.23
56894;BME280;43392;50.078;13.704;2023-05-22T03:06:27;96922.50;;;14.01;79.98
56894;BME280;43392;50.078;13.704;2023-05-22T03:08:54;96923.00;;;14.03;80.08
56894;BME280;43392;50.078;13.704;2023-05-22T03:11:21;96917.94;;;14.02;79.77
56894;BME280;43392;50.078;13.704;2023-05-22T03:13:49;96922.59;;;13.96;79.47
56894;BME280;43392;50.078;13.704;2023-05-22T03:16:15;96926.41;;;13.95;80.29
56894;BME280;43392;50.078;13.704;2023-05-22T03:18:42;96915.63;;;13.95;80.40
56894;BME280;43392;50.078;13.704;2023-05-22T03:21:08;96922.59;;;13.96;80.29
56894;BME280;43392;50.078;13.704;2023-05-22T03:23:35;96917.53;;;13.94;80.55
56894;BME280;43392;50.078;13.704;2023-05-22T03:26:02;96919.72;;;13.92;80.51
56894;BME280;43392;50.078;13.704;2023-05-22T03:28:28;96919.59;;;13.97;80.77
56894;BME280;43392;50.078;13.704;2023-05-22T03:30:56;96908.72;;;14.03;80.77
56894;BME280;43392;50.078;13.704;2023-05-22T03:33:23;96912.72;;;14.05;80.16
56894;BME280;43392;50.078;13.704;2023-05-22T03:35:49;96907.84;;;14.07;80.43
56894;BME280;43392;50.078;13.704;2023-05-22T03:38:16;96910.72;;;14.11;80.27
56894;BME280;43392;50.078;13.704;2023-05-22T03:40:42;96910.16;;;14.14;80.44
56894;BME280;43392;50.078;13.704;2023-05-22T03:43:09;96910.84;;;14.19;80.25
56894;BME280;43392;50.078;13.704;2023-05-22T03:45:36;96906.56;;;14.32;79.87
56894;BME280;43392;50.078;13.704;2023-05-22T03:48:04;96902.50;;;14.48;79.74
56894;BME280;43392;50.078;13.704;2023-05-22T03:50:30;96906.78;;;14.63;79.45
56894;BME280;43392;50.078;13.704;2023-05-22T03:52:57;96905.44;;;14.74;79.32
56894;BME280;43392;50.078;13.704;2023-05-22T03:55:24;96917.44;;;14.81;78.80
56894;BME280;43392;50.078;13.704;2023-05-22T03:57:50;96915.91;;;14.89;78.69
56894;BME280;43392;50.078;13.704;2023-05-22T04:00:18;96909.59;;;14.93;78.61
56894;BME280;43392;50.078;13.704;2023-05-22T04:02:45;96915.69;;;14.99;78.20
56894;BME280;43392;50.078;13.704;2023-05-22T04:05:13;96909.81;;;14.97;77.69
56894;BME280;43392;50.078;13.704;2023-05-22T04:07:39;96912.34;;;14.80;76.90
56894;BME280;43392;50.078;13.704;2023-05-22T04:10:06;96916.53;;;14.58;77.26
56894;BME280;43392;50.078;13.704;2023-05-22T04:12:33;96911.88;;;14.37;77.61
56894;BME280;43392;50.078;13.704;2023-05-22T04:15:00;96906.88;;;14.17;78.01
56894;BME280;43392;50.078;13.704;2023-05-22T04:17:30;96906.75;;;14.08;78.82
56894;BME280;43392;50.078;13.704;2023-05-22T04:19:57;96908.81;;;13.97;79.39
56894;BME280;43392;50.078;13.704;2023-05-22T04:22:25;96904.53;;;13.83;79.03
56894;BME280;43392;50.078;13.704;2023-05-22T04:24:54;96916.09;;;13.83;79.07
56894;BME280;43392;50.078;13.704;2023-05-22T04:27:21;96912.50;;;13.88;78.98
56894;BME280;43392;50.078;13.704;2023-05-22T04:29:48;96914.22;;;13.97;78.62
56894;BME280;43392;50.078;13.704;2023-05-22T04:32:17;96913.84;;;14.04;79.10
56894;BME280;43392;50.078;13.704;2023-05-22T04:34:47;96918.25;;;14.14;79.06
56894;BME280;43392;50.078;13.704;2023-05-22T04:37:14;96913.16;;;14.26;78.90
56894;BME280;43392;50.078;13.704;2023-05-22T04:39:43;96912.97;;;14.36;79.23
56894;BME280;43392;50.078;13.704;2023-05-22T04:42:11;96908.78;;;14.43;78.80
56894;BME280;43392;50.078;13.704;2023-05-22T04:44:38;96916.97;;;14.52;79.12
56894;BME280;43392;50.078;13.704;2023-05-22T04:47:06;96905.75;;;14.58;79.12
56894;BME280;43392;50.078;13.704;2023-05-22T04:49:35;96920.75;;;14.51;79.18
56894;BME280;43392;50.078;13.704;2023-05-22T04:52:02;96911.78;;;14.42;80.12
56894;BME280;43392;50.078;13.704;2023-05-22T04:54:30;96915.38;;;14.37;80.90
56894;BME280;43392;50.078;13.704;2023-05-22T04:56:58;96917.34;;;14.32;81.31
56894;BME280;43392;50.078;13.704;2023-05-22T04:59:24;96924.38;;;14.33;81.82
56894;BME280;43392;50.078;13.704;2023-05-22T05:01:51;96922.47;;;14.33;82.35
56894;BME280;43392;50.078;13.704;2023-05-22T05:04:18;96922.97;;;14.35;82.49
56894;BME280;43392;50.078;13.704;2023-05-22T05:06:44;96921.75;;;14.41;82.26
56894;BME280;43392;50.078;13.704;2023-05-22T05:09:11;96925.16;;;14.47;81.90
56894;BME280;43392;50.078;13.704;2023-05-22T05:11:37;96924.75;;;14.53;82.19
56894;BME280;43392;50.078;13.704;2023-05-22T05:14:06;96922.97;;;14.63;82.11
56894;BME280;43392;50.078;13.704;2023-05-22T05:16:32;96918.75;;;14.70;81.35
56894;BME280;43392;50.078;13.704;2023-05-22T05:18:59;96920.03;;;14.73;81.27
56894;BME280;43392;50.078;13.704;2023-05-22T05:21:26;96903.66;;;14.69;81.15
56894;BME280;43392;50.078;13.704;2023-05-22T05:23:52;96910.34;;;14.72;81.53
56894;BME280;43392;50.078;13.704;2023-05-22T05:26:19;96918.44;;;14.72;81.74
56894;BME280;43392;50.078;13.704;2023-05-22T05:28:48;96916.94;;;14.79;82.07
56894;BME280;43392;50.078;13.704;2023-05-22T05:31:16;96917.50;;;14.90;81.78
56894;BME280;43392;50.078;13.704;2023-05-22T05:33:43;96919.00;;;14.96;81.64
56894;BME280;43392;50.078;13.704;2023-05-22T05:36:10;96922.38;;;15.01;81.66
56894;BME280;43392;50.078;13.704;2023-05-22T05:38:36;96921.97;;;15.08;81.87
56894;BME280;43392;50.078;13.704;2023-05-22T05:41:03;96908.84;;;15.15;81.39
56894;BME280;43392;50.078;13.704;2023-05-22T05:43:30;96916.22;;;15.23;81.03
56894;BME280;43392;50.078;13.704;2023-05-22T05:45:56;96914.50;;;15.27;81.16
56894;BME280;43392;50.078;13.704;2023-05-22T05:48:24;96913.78;;;15.35;80.80
56894;BME280;43392;50.078;13.704;2023-05-22T05:50:51;96916.34;;;15.40;80.87
56894;BME280;43392;50.078;13.704;2023-05-22T05:53:18;96916.09;;;15.50;80.42
56894;BME280;43392;50.078;13.704;2023-05-22T05:55:44;96919.84;;;15.63;80.55
56894;BME280;43392;50.078;13.704;2023-05-22T05:58:11;96907.63;;;15.65;80.11
56894;BME280;43392;50.078;13.704;2023-05-22T06:00:37;96923.84;;;15.65;79.38
56894;BME280;43392;50.078;13.704;2023-05-22T06:03:06;96911.69;;;15.76;79.88
56894;BME280;43392;50.078;13.704;2023-05-22T06:05:34;96915.09;;;15.90;79.66
56894;BME280;43392;50.078;13.704;2023-05-22T06:08:01;96924.53;;;16.02;78.15
56894;BME280;43392;50.078;13.704;2023-05-22T06:10:28;96923.47;;;16.11;78.01
56894;BME280;43392;50.078;13.704;2023-05-22T06:12:55;96926.72;;;16.22;76.95
56894;BME280;43392;50.078;13.704;2023-05-22T06:15:21;96922.72;;;16.19;77.65
56894;BME280;43392;50.078;13.704;2023-05-22T06:17:48;96920.84;;;16.28;77.51
56894;BME280;43392;50.078;13.704;2023-05-22T06:20:15;96916.75;;;16.39;77.71
56894;BME280;43392;50.078;13.704;2023-05-22T06:22:42;96919.00;;;16.46;77.78
56894;BME280;43392;50.078;13.704;2023-05-22T06:25:09;96908.19;;;16.46;77.19
56894;BME280;43392;50.078;13.704;2023-05-22T06:27:36;96912.53;;;16.64;77.36
56894;BME280;43392;50.078;13.704;2023-05-22T06:30:04;96909.06;;;16.72;76.82
56894;BME280;43392;50.078;13.704;2023-05-22T06:32:31;96912.09;;;16.79;77.75
56894;BME280;43392;50.078;13.704;2023-05-22T06:34:57;96911.81;;;16.81;76.50
56894;BME280;43392;50.078;13.704;2023-05-22T06:37:24;96909.72;;;16.86;76.88
56894;BME280;43392;50.078;13.704;2023-05-22T06:39:52;96908.63;;;16.96;76.74
56894;BME280;43392;50.078;13.704;2023-05-22T06:42:18;96913.59;;;17.02;75.70
56894;BME280;43392;50.078;13.704;2023-05-22T06:44:45;96898.75;;;17.08;75.63
56894;BME280;43392;50.078;13.704;2023-05-22T06:47:12;96907.53;;;17.22;74.92
56894;BME280;43392;50.078;13.704;2023-05-22T06:49:38;96905.63;;;17.32;74.36
56894;BME280;43392;50.078;13.704;2023-05-22T06:52:05;96904.19;;;17.43;74.63
56894;BME280;43392;50.078;13.704;2023-05-22T06:54:32;96909.16;;;17.58;73.74
56894;BME280;43392;50.078;13.704;2023-05-22T06:57:00;96907.50;;;17.74;73.47
56894;BME280;43392;50.078;13.704;2023-05-22T06:59:29;96901.41;;;17.85;72.72
56894;BME280;43392;50.078;13.704;2023-05-22T07:01:55;96907.16;;;17.92;72.26
56894;BME280;43392;50.078;13.704;2023-05-22T07:04:22;96907.78;;;17.98;71.79
56894;BME280;43392;50.078;13.704;2023-05-22T07:06:49;96909.22;;;18.04;71.56
56894;BME280;43392;50.078;13.704;2023-05-22T07:09:17;96908.53;;;18.07;71.16
56894;BME280;43392;50.078;13.704;2023-05-22T07:11:44;96906.00;;;18.11;71.28
56894;BME280;43392;50.078;13.704;2023-05-22T07:14:12;96908.06;;;18.14;71.32
56894;BME280;43392;50.078;13.704;2023-05-22T07:16:39;96902.47;;;18.19;70.93
56894;BME280;43392;50.078;13.704;2023-05-22T07:19:06;96893.63;;;18.22;70.48
56894;BME280;43392;50.078;13.704;2023-05-22T07:21:33;96903.84;;;18.33;70.96
56894;BME280;43392;50.078;13.704;2023-05-22T07:24:00;96896.44;;;18.42;70.55
56894;BME280;43392;50.078;13.704;2023-05-22T07:26:32;96893.38;;;18.52;69.83
56894;BME280;43392;50.078;13.704;2023-05-22T07:28:59;96897.97;;;18.61;69.85
56894;BME280;43392;50.078;13.704;2023-05-22T07:31:27;96888.97;;;18.69;69.83
56894;BME280;43392;50.078;13.704;2023-05-22T07:33:54;96878.84;;;18.78;69.54
56894;BME280;43392;50.078;13.704;2023-05-22T07:36:21;96893.97;;;18.87;69.23
56894;BME280;43392;50.078;13.704;2023-05-22T07:38:47;96887.53;;;18.92;69.07
56894;BME280;43392;50.078;13.704;2023-05-22T07:41:14;96885.78;;;18.96;68.60
56894;BME280;43392;50.078;13.704;2023-05-22T07:43:41;96883.44;;;19.06;68.58
56894;BME280;43392;50.078;13.704;2023-05-22T07:46:07;96880.31;;;19.16;68.18
56894;BME280;43392;50.078;13.704;2023-05-22T07:48:37;96878.59;;;19.33;68.21
56894;BME280;43392;50.078;13.704;2023-05-22T07:51:04;96878.00;;;19.48;67.92
56894;BME280;43392;50.078;13.704;2023-05-22T07:53:30;96877.13;;;19.56;66.15
56894;BME280;43392;50.078;13.704;2023-05-22T07:55:57;96871.38;;;19.69;66.55
56894;BME280;43392;50.078;13.704;2023-05-22T07:58:23;96878.13;;;19.84;66.02
56894;BME280;43392;50.078;13.704;2023-05-22T08:00:51;96870.19;;;19.91;65.54
56894;BME280;43392;50.078;13.704;2023-05-22T08:03:17;96865.78;;;19.99;64.48
56894;BME280;43392;50.078;13.704;2023-05-22T08:05:45;96869.53;;;20.06;64.73
56894;BME280;43392;50.078;13.704;2023-05-22T08:08:12;96874.31;;;20.09;64.70
56894;BME280;43392;50.078;13.704;2023-05-22T08:10:39;96871.47;;;20.18;64.80
56894;BME280;43392;50.078;13.704;2023-05-22T08:13:06;96869.28;;;20.32;63.43
56894;BME280;43392;50.078;13.704;2023-05-22T08:15:33;96868.47;;;20.43;62.98
56894;BME280;43392;50.078;13.704;2023-05-22T08:18:00;96868.91;;;20.58;61.54
56894;BME280;43392;50.078;13.704;2023-05-22T08:20:26;96873.69;;;20.61;61.01
56894;BME280;43392;50.078;13.704;2023-05-22T08:22:54;96872.00;;;20.68;62.25
56894;BME280;43392;50.078;13.704;2023-05-22T08:25:21;96867.66;;;20.79;61.52
56894;BME280;43392;50.078;13.704;2023-05-22T08:27:47;96865.50;;;20.85;60.40
56894;BME280;43392;50.078;13.704;2023-05-22T08:30:14;96876.50;;;20.88;60.59
56894;BME280;43392;50.078;13.704;2023-05-22T08:32:41;96869.69;;;20.94;60.92
56894;BME280;43392;50.078;13.704;2023-05-22T08:35:08;96866.47;;;21.04;60.45
56894;BME280;43392;50.078;13.704;2023-05-22T08:37:35;96863.75;;;21.17;60.95
56894;BME280;43392;50.078;13.704;2023-05-22T08:40:04;96867.13;;;21.26;60.31
56894;BME280;43392;50.078;13.704;2023-05-22T08:42:31;96863.31;;;21.42;60.11
56894;BME280;43392;50.078;13.704;2023-05-22T08:44:57;96860.63;;;21.58;59.42
56894;BME280;43392;50.078;13.704;2023-05-22T08:47:25;96862.84;;;21.68;59.08
56894;BME280;43392;50.078;13.704;2023-05-22T08:49:53;96859.97;;;21.76;58.84
56894;BME280;43392;50.078;13.704;2023-05-22T08:52:27;96855.16;;;21.86;58.49
56894;BME280;43392;50.078;13.704;2023-05-22T08:54:55;96852.97;;;21.91;57.30
56894;BME280;43392;50.078;13.704;2023-05-22T08:57:24;96844.28;;;22.01;57.58
56894;BME280;43392;50.078;13.704;2023-05-22T08:59:52;96856.59;;;22.11;57.29
56894;BME280;43392;50.078;13.704;2023-05-22T09:02:19;96850.09;;;22.15;55.73
56894;BME280;43392;50.078;13.704;2023-05-22T09:04:46;96852.13;;;22.18;55.89
56894;BME280;43392;50.078;13.704;2023-05-22T09:07:13;96841.44;;;22.29;56.45
56894;BME280;43392;50.078;13.704;2023-05-22T09:09:40;96847.00;;;22.32;55.64
56894;BME280;43392;50.078;13.704;2023-05-22T09:12:07;96846.38;;;22.39;55.65
56894;BME280;43392;50.078;13.704;2023-05-22T09:14:38;96842.72;;;22.51;54.07
56894;BME280;43392;50.078;13.704;2023-05-22T09:17:06;96838.22;;;22.58;54.53
56894;BME280;43392;50.078;13.704;2023-05-22T09:19:33;96840.63;;;22.60;53.50
56894;BME280;43392;50.078;13.704;2023-05-22T09:22:03;96837.66;;;22.65;54.38
56894;BME280;43392;50.078;13.704;2023-05-22T09:24:30;96842.13;;;22.73;53.89
56894;BME280;43392;50.078;13.704;2023-05-22T09:27:01;96842.78;;;22.85;54.03
56894;BME280;43392;50.078;13.704;2023-05-22T09:29:29;96842.16;;;22.92;53.20
56894;BME280;43392;50.078;13.704;2023-05-22T09:31:58;96829.00;;;22.97;53.50
56894;BME280;43392;50.078;13.704;2023-05-22T09:34:27;96833.66;;;22.97;52.94
56894;BME280;43392;50.078;13.704;2023-05-22T09:37:00;96831.34;;;22.99;53.55
56894;BME280;43392;50.078;13.704;2023-05-22T09:39:37;96832.81;;;23.12;54.20
56894;BME280;43392;50.078;13.704;2023-05-22T09:42:04;96836.66;;;23.27;53.88
56894;BME280;43392;50.078;13.704;2023-05-22T09:44:31;96826.28;;;23.36;53.35
56894;BME280;43392;50.078;13.704;2023-05-22T09:46:59;96829.59;;;23.45;53.13
56894;BME280;43392;50.078;13.704;2023-05-22T09:49:26;96821.19;;;23.53;52.13
56894;BME280;43392;50.078;13.704;2023-05-22T09:51:54;96823.34;;;23.63;51.60
56894;BME280;43392;50.078;13.704;2023-05-22T09:54:24;96821.81;;;23.66;51.42
56894;BME280;43392;50.078;13.704;2023-05-22T09:56:54;96824.31;;;23.74;52.78
56894;BME280;43392;50.078;13.704;2023-05-22T09:59:26;96821.56;;;23.74;50.99
56894;BME280;43392;50.078;13.704;2023-05-22T10:01:54;96828.22;;;23.73;51.00
56894;BME280;43392;50.078;13.704;2023-05-22T10:04:22;96816.09;;;23.74;50.14
56894;BME280;43392;50.078;13.704;2023-05-22T10:06:53;96815.75;;;23.76;49.71
56894;BME280;43392;50.078;13.704;2023-05-22T10:09:22;96819.03;;;23.85;51.29
56894;BME280;43392;50.078;13.704;2023-05-22T10:11:52;96817.50;;;23.88;50.24
56894;BME280;43392;50.078;13.704;2023-05-22T10:14:20;96808.00;;;23.82;50.54
56894;BME280;43392;50.078;13.704;2023-05-22T10:16:47;96813.47;;;23.82;50.69
56894;BME280;43392;50.078;13.704;2023-05-22T10:19:16;96807.69;;;23.87;50.45
56894;BME280;43392;50.078;13.704;2023-05-22T10:21:44;96800.34;;;23.91;49.65
56894;BME280;43392;50.078;13.704;2023-05-22T10:24:12;96811.47;;;24.01;49.90
56894;BME280;43392;50.078;13.704;2023-05-22T10:26:39;96805.84;;;24.13;49.40
56894;BME280;43392;50.078;13.704;2023-05-22T10:29:09;96801.47;;;24.31;49.04
56894;BME280;43392;50.078;13.704;2023-05-22T10:31:41;96796.44;;;24.37;48.68
56894;BME280;43392;50.078;13.704;2023-05-22T10:34:12;96799.47;;;24.32;49.05
56894;BME280;43392;50.078;13.704;2023-05-22T10:36:51;96797.53;;;24.32;49.76
56894;BME280;43392;50.078;13.704;2023-05-22T10:39:32;96800.78;;;24.38;48.53
56894;BME280;43392;50.078;13.704;2023-05-22T10:44:35;96796.13;;;24.42;47.78
56894;BME280;43392;50.078;13.704;2023-05-22T10:47:07;96797.44;;;24.52;47.80
56894;BME280;43392;50.078;13.704;2023-05-22T10:49:34;96789.31;;;24.59;46.40
56894;BME280;43392;50.078;13.704;2023-05-22T10:52:03;96797.72;;;24.69;45.96
56894;BME280;43392;50.078;13.704;2023-05-22T10:54:38;96789.56;;;24.76;45.81
56894;BME280;43392;50.078;13.704;2023-05-22T10:57:09;96783.81;;;24.81;46.15
56894;BME280;43392;50.078;13.704;2023-05-22T10:59:38;96777.91;;;24.79;46.45
56894;BME280;43392;50.078;13.704;2023-05-22T11:02:12;96786.59;;;24.85;46.85
56894;BME280;43392;50.078;13.704;2023-05-22T11:04:43;96776.72;;;24.80;46.16
56894;BME280;43392;50.078;13.704;2023-05-22T11:07:12;96769.97;;;24.74;45.75
56894;BME280;43392;50.078;13.704;2023-05-22T11:09:40;96768.69;;;24.68;45.61
56894;BME280;43392;50.078;13.704;2023-05-22T11:12:18;96775.34;;;24.67;46.34
56894;BME280;43392;50.078;13.704;2023-05-22T11:14:51;96768.69;;;24.68;46.18
56894;BME280;43392;50.078;13.704;2023-05-22T11:17:20;96768.03;;;24.75;45.91
56894;BME280;43392;50.078;13.704;2023-05-22T11:19:56;96766.44;;;24.74;45.58
56894;BME280;43392;50.078;13.704;2023-05-22T11:22:29;96761.91;;;24.85;46.79
56894;BME280;43392;50.078;13.704;2023-05-22T11:24:55;96772.59;;;24.93;46.45
56894;BME280;43392;50.078;13.704;2023-05-22T11:27:22;96771.47;;;24.98;45.72
56894;BME280;43392;50.078;13.704;2023-05-22T11:29:49;96757.81;;;25.01;45.79
56894;BME280;43392;50.078;13.704;2023-05-22T11:32:16;96762.22;;;25.10;45.27
56894;BME280;43392;50.078;13.704;2023-05-22T11:34:45;96755.91;;;25.05;43.92
56894;BME280;43392;50.078;13.704;2023-05-22T11:37:14;96755.00;;;24.98;43.07
56894;BME280;43392;50.078;13.704;2023-05-22T11:39:48;96760.47;;;24.94;44.86
56894;BME280;43392;50.078;13.704;2023-05-22T11:42:17;96747.53;;;24.95;45.33
56894;BME280;43392;50.078;13.704;2023-05-22T11:44:43;96751.84;;;24.96;44.55
56894;BME280;43392;50.078;13.704;2023-05-22T11:47:10;96751.72;;;24.85;45.38
56894;BME280;43392;50.078;13.704;2023-05-22T11:49:37;96748.94;;;24.82;44.83
56894;BME280;43392;50.078;13.704;2023-05-22T11:52:04;96753.09;;;24.72;45.11
56894;BME280;43392;50.078;13.704;2023-05-22T11:54:31;96740.22;;;24.76;45.69
56894;BME280;43392;50.078;13.704;2023-05-22T11:56:59;96742.88;;;24.69;45.05
56894;BME280;43392;50.078;13.704;2023-05-22T11:59:28;96741.88;;;24.55;44.95
56894;BME280;43392;50.078;13.704;2023-05-22T12:01:55;96747.47;;;24.62;45.94
56894;BME280;43392;50.078;13.704;2023-05-22T12:04:22;96746.75;;;24.68;45.72
56894;BME280;43392;50.078;13.704;2023-05-22T12:06:49;96738.16;;;24.70;45.96
56894;BME280;43392;50.078;13.704;2023-05-22T12:09:16;96743.97;;;24.65;45.60
56894;BME280;43392;50.078;13.704;2023-05-22T12:11:45;96736.00;;;24.56;45.16
56894;BME280;43392;50.078;13.704;2023-05-22T12:14:13;96743.06;;;24.54;45.53
56894;BME280;43392;50.078;13.704;2023-05-22T12:16:40;96744.38;;;24.63;44.91
56894;BME280;43392;50.078;13.704;2023-05-22T12:19:09;96743.66;;;24.70;45.43
56894;BME280;43392;50.078;13.704;2023-05-22T12:21:36;96743.03;;;24.80;45.49
56894;BME280;43392;50.078;13.704;2023-05-22T12:24:04;96737.16;;;24.81;45.32
56894;BME280;43392;50.078;13.704;2023-05-22T12:26:31;96742.34;;;24.86;45.15
56894;BME280;43392;50.078;13.704;2023-05-22T12:28:58;96741.50;;;24.82;44.18
56894;BME280;43392;50.078;13.704;2023-05-22T12:31:26;96735.59;;;24.80;44.44
56894;BME280;43392;50.078;13.704;2023-05-22T12:33:53;96730.78;;;24.74;43.92
56894;BME280;43392;50.078;13.704;2023-05-22T12:36:20;96733.69;;;24.84;44.15
56894;BME280;43392;50.078;13.704;2023-05-22T12:38:46;96730.28;;;24.94;44.19
56894;BME280;43392;50.078;13.704;2023-05-22T12:41:13;96735.88;;;25.01;43.39
56894;BME280;43392;50.078;13.704;2023-05-22T12:43:40;96727.25;;;25.03;43.36
56894;BME280;43392;50.078;13.704;2023-05-22T12:46:06;96727.06;;;25.19;44.09
56894;BME280;43392;50.078;13.704;2023-05-22T12:48:34;96727.13;;;25.26;43.71
56894;BME280;43392;50.078;13.704;2023-05-22T12:51:01;96722.38;;;25.23;43.07
56894;BME280;43392;50.078;13.704;2023-05-22T12:53:27;96727.88;;;25.23;43.65
56894;BME280;43392;50.078;13.704;2023-05-22T12:55:54;96724.78;;;25.28;43.50
56894;BME280;43392;50.078;13.704;2023-05-22T12:58:20;96720.44;;;25.23;43.34
56894;BME280;43392;50.078;13.704;2023-05-22T13:00:47;96712.88;;;25.13;42.28